createdAt,value
2023-04-16T00:02:50.691Z,4.7
2023-04-16T00:15:50.657Z,4.3
2023-04-16T00:28:50.634Z,3.9
2023-04-16T00:41:50.636Z,3.6
2023-04-16T00:54:50.641Z,3.4
2023-04-16T01:07:50.636Z,3.6
2023-04-16T01:20:50.646Z,5.0
2023-04-16T01:33:50.700Z,5.3
2023-04-16T01:46:50.733Z,4.4
2023-04-16T01:59:50.743Z,4.0
2023-04-16T02:12:50.761Z,3.7
2023-04-16T02:25:50.799Z,4.4
2023-04-16T02:38:50.759Z,5.6
2023-04-16T02:51:50.815Z,4.9
2023-04-16T03:04:50.817Z,4.3
2023-04-16T03:17:50.846Z,4.0
2023-04-16T03:30:50.870Z,3.7
2023-04-16T03:43:50.855Z,3.2
2023-04-16T03:56:50.874Z,3.5
2023-04-16T04:09:50.860Z,3.7
2023-04-16T04:22:50.881Z,3.7
2023-04-16T04:36:50.836Z,3.8
2023-04-16T04:50:50.859Z,3.5
2023-04-16T05:04:50.908Z,3.7
2023-04-16T05:18:50.892Z,3.9
2023-04-16T05:32:50.904Z,4.9
2023-04-16T05:46:50.900Z,5.6
2023-04-16T06:00:50.880Z,7.1
2023-04-16T06:14:50.887Z,8.6
2023-04-16T06:29:50.932Z,9.9
2023-04-16T06:43:50.916Z,12.5
2023-04-16T06:57:50.916Z,15.8
2023-04-16T07:11:50.936Z,17.5
2023-04-16T07:25:50.969Z,16.0
2023-04-16T07:39:50.957Z,16.1
2023-04-16T07:53:50.956Z,17.4
2023-04-16T08:08:50.974Z,17.5
2023-04-16T08:22:50.996Z,17.4
2023-04-16T08:38:50.979Z,18.7
2023-04-16T09:14:51.029Z,19.0
2023-04-16T09:28:51.031Z,18.8
2023-04-16T09:42:51.063Z,19.2
2023-04-16T09:56:51.080Z,19.4
2023-04-16T10:10:51.129Z,19.1
2023-04-16T10:24:51.099Z,19.6
2023-04-16T10:38:51.096Z,20.5
2023-04-16T10:52:51.112Z,20.0
2023-04-16T11:06:51.109Z,20.1
2023-04-16T11:20:51.110Z,20.3
2023-04-16T11:34:51.109Z,19.8
2023-04-16T11:48:51.125Z,20.4
2023-04-16T12:02:51.307Z,20.6
2023-04-16T12:16:51.177Z,21.4
2023-04-16T12:30:51.199Z,21.6
2023-04-16T12:44:51.166Z,21.8
2023-04-16T12:58:51.178Z,22.4
2023-04-16T13:12:51.236Z,21.2
2023-04-16T13:26:51.209Z,22.0
2023-04-16T13:40:51.280Z,21.8
2023-04-16T13:54:51.221Z,21.3
2023-04-16T14:08:51.263Z,20.5
2023-04-16T14:22:51.271Z,21.1
2023-04-16T14:36:51.277Z,20.6
2023-04-16T14:50:51.259Z,22.8
2023-04-16T15:04:51.266Z,21.0
2023-04-16T15:18:51.277Z,18.5
2023-04-16T15:32:51.300Z,17.1
2023-04-16T15:46:51.335Z,16.5
2023-04-16T16:00:51.273Z,15.7
2023-04-16T16:14:51.292Z,14.9
2023-04-16T16:28:51.288Z,14.6
2023-04-16T16:42:51.323Z,14.6
2023-04-16T16:56:51.477Z,14.6
2023-04-16T17:10:52.207Z,14.2
2023-04-16T17:24:51.344Z,13.5
2023-04-16T17:38:51.350Z,12.7
2023-04-16T17:52:51.372Z,12.5
2023-04-16T18:07:51.390Z,11.4
2023-04-16T18:21:51.407Z,12.1
2023-04-16T18:35:51.424Z,11.1
2023-04-16T18:49:51.430Z,9.8
2023-04-16T19:02:51.512Z,9.1
2023-04-16T19:15:51.469Z,8.4
2023-04-16T19:28:51.436Z,8.0
2023-04-16T19:41:51.497Z,8.3
2023-04-16T19:54:51.539Z,8.1
2023-04-16T20:07:52.690Z,7.4
2023-04-16T20:20:51.531Z,7.0
2023-04-16T20:33:51.510Z,6.6
2023-04-16T20:46:51.514Z,6.5
2023-04-16T20:59:51.545Z,6.3
2023-04-16T21:12:51.548Z,6.1
2023-04-16T21:25:51.512Z,6.6
2023-04-16T21:38:51.553Z,6.6
2023-04-16T21:51:51.535Z,6.2
2023-04-16T22:04:51.547Z,6.3
2023-04-16T22:17:51.615Z,5.9
2023-04-16T22:30:51.554Z,5.7
2023-04-16T22:43:52.444Z,5.6
2023-04-16T22:56:51.600Z,5.5
2023-04-16T23:09:51.614Z,6.0
2023-04-16T23:22:51.618Z,7.0
2023-04-16T23:35:51.670Z,6.3
2023-04-16T23:48:51.698Z,6.0
